Terminal Aerodrome Forecast
Issued by NWS

Home | Current Version | Previous Version | Text Only | Print | Product List | Glossary On
Versions: 1 2 3 4 5 6 7 8 9 10 11 12 13 14 15 16 17 18 19 20 21 22 23 24 25 26 27 28 29 30 31 32
000
FTUS42 KGSP 251731
TAFHKY
TAF
KHKY 251731Z 2518/2618 16005KT P6SM SCT250
     FM260200 19004KT P6SM BKN080
     FM260700 00000KT P6SM OVC015
     FM261500 27004KT P6SM OVC021
     FM261700 30007KT P6SM BKN050=

USA.gov is the U.S. government's official web portal to all federal, state and local government web resources and services.